createdAt,value
2023-02-05T00:01:45.344Z,4.53
2023-02-05T00:04:11.741Z,5.43
2023-02-05T00:06:38.120Z,6.63
2023-02-05T00:09:04.570Z,4.00
2023-02-05T00:11:30.982Z,8.52
2023-02-05T00:13:57.359Z,3.75
2023-02-05T00:16:24.519Z,7.05
2023-02-05T00:18:51.818Z,5.47
2023-02-05T00:21:18.761Z,6.20
2023-02-05T00:23:46.483Z,3.78
2023-02-05T00:26:14.230Z,3.38
2023-02-05T00:28:40.934Z,3.92
2023-02-05T00:31:08.666Z,4.68
2023-02-05T00:33:35.199Z,4.28
2023-02-05T00:36:01.615Z,7.25
2023-02-05T00:38:27.944Z,6.15
2023-02-05T00:40:54.309Z,9.95
2023-02-05T00:43:20.629Z,3.70
2023-02-05T00:45:47.218Z,4.72
2023-02-05T00:48:13.551Z,7.70
2023-02-05T00:50:40.802Z,6.30
2023-02-05T00:53:07.924Z,6.80
2023-02-05T00:55:34.541Z,5.75
2023-02-05T00:58:01.279Z,8.50
2023-02-05T01:00:28.499Z,3.28
2023-02-05T01:02:55.476Z,4.63
2023-02-05T01:05:21.927Z,4.15
2023-02-05T01:07:48.400Z,4.22
2023-02-05T01:10:15.308Z,6.28
2023-02-05T01:12:41.660Z,7.68
2023-02-05T01:15:08.843Z,5.82
2023-02-05T01:17:35.267Z,5.90
2023-02-05T01:20:01.664Z,5.25
2023-02-05T01:22:28.692Z,6.47
2023-02-05T01:24:55.081Z,7.50
2023-02-05T01:27:21.499Z,6.63
2023-02-05T01:29:47.984Z,5.72
2023-02-05T01:32:14.359Z,5.55
2023-02-05T01:34:40.793Z,6.80
2023-02-05T01:37:07.264Z,8.02
2023-02-05T01:39:33.689Z,6.55
2023-02-05T01:42:00.102Z,5.75
2023-02-05T01:44:26.487Z,9.88
2023-02-05T01:46:53.916Z,9.32
2023-02-05T01:49:23.269Z,4.78
2023-02-05T01:51:50.229Z,5.43
2023-02-05T01:54:17.678Z,5.25
2023-02-05T01:56:46.552Z,4.60
2023-02-05T01:59:19.008Z,4.43
2023-02-05T02:01:45.701Z,7.47
2023-02-05T02:04:14.670Z,4.43
2023-02-05T02:06:41.488Z,4.97
2023-02-05T02:09:09.488Z,5.50
2023-02-05T02:11:37.998Z,5.43
2023-02-05T02:14:09.240Z,5.43
2023-02-05T02:16:36.794Z,7.97
2023-02-05T02:19:07.113Z,7.00
2023-02-05T02:21:33.620Z,8.90
2023-02-05T02:24:05.690Z,7.40
2023-02-05T02:26:42.568Z,6.28
2023-02-05T02:29:11.087Z,5.65
2023-02-05T02:31:50.852Z,6.88
2023-02-05T02:34:26.175Z,7.25
2023-02-05T02:36:57.359Z,6.80
2023-02-05T02:39:30.751Z,8.77
2023-02-05T02:42:00.293Z,6.25
2023-02-05T02:44:32.711Z,8.35
2023-02-05T02:47:01.801Z,6.15
2023-02-05T02:49:36.435Z,7.68
2023-02-05T02:52:06.417Z,5.88
2023-02-05T02:54:33.824Z,5.50
2023-02-05T02:57:01.616Z,3.80
2023-02-05T02:59:29.532Z,6.90
2023-02-05T03:01:58.179Z,5.35
2023-02-05T03:04:27.964Z,8.82
2023-02-05T03:06:55.546Z,5.43
2023-02-05T03:09:28.418Z,5.35
2023-02-05T03:11:54.813Z,8.95
2023-02-05T03:14:21.307Z,5.97
2023-02-05T03:16:47.800Z,4.32
2023-02-05T03:19:14.273Z,8.02
2023-02-05T03:21:42.920Z,5.55
2023-02-05T03:24:09.803Z,4.55
2023-02-05T03:26:36.588Z,6.85
2023-02-05T03:29:04.936Z,8.45
2023-02-05T03:31:40.719Z,7.72
2023-02-05T03:34:07.076Z,6.50
2023-02-05T03:36:53.518Z,6.05
2023-02-05T03:39:38.902Z,9.30
2023-02-05T03:42:11.241Z,11.10
2023-02-05T03:44:46.826Z,14.93
2023-02-05T03:47:28.242Z,12.07
2023-02-05T03:50:06.891Z,8.82
2023-02-05T03:52:41.035Z,12.70
2023-02-05T03:55:10.943Z,8.63
2023-02-05T03:57:47.176Z,7.65
2023-02-05T04:00:14.100Z,8.88
2023-02-05T04:02:40.906Z,9.60
2023-02-05T04:05:07.435Z,10.77
2023-02-05T04:07:33.869Z,8.93
2023-02-05T04:10:00.258Z,6.90
2023-02-05T04:12:26.564Z,10.45
2023-02-05T04:14:52.946Z,10.82
2023-02-05T04:17:19.417Z,13.77
2023-02-05T04:19:45.779Z,11.35
2023-02-05T04:22:12.166Z,12.70
2023-02-05T04:24:38.542Z,8.73
2023-02-05T04:27:04.954Z,11.88
2023-02-05T04:29:31.338Z,7.82
2023-02-05T04:31:57.790Z,14.02
2023-02-05T04:34:24.164Z,8.98
2023-02-05T04:36:50.517Z,6.55
2023-02-05T04:39:16.899Z,5.72
2023-02-05T04:41:43.336Z,6.10
2023-02-05T04:44:09.700Z,5.55
2023-02-05T04:46:36.006Z,8.05
2023-02-05T04:49:02.394Z,7.68
2023-02-05T04:51:28.771Z,5.78
2023-02-05T04:53:55.066Z,7.30
2023-02-05T04:56:21.435Z,6.30
2023-02-05T04:58:47.789Z,5.55
2023-02-05T05:01:15.476Z,5.10
2023-02-05T05:03:42.422Z,4.38
2023-02-05T05:06:09.362Z,4.78
2023-02-05T05:08:35.823Z,4.47
2023-02-05T05:11:06.414Z,5.22
2023-02-05T05:13:35.411Z,4.07
2023-02-05T05:16:01.972Z,5.78
2023-02-05T05:18:28.419Z,6.88
2023-02-05T05:20:54.885Z,6.72
2023-02-05T05:23:21.230Z,6.20
2023-02-05T05:25:48.266Z,7.80
2023-02-05T05:28:15.521Z,8.38
2023-02-05T05:30:42.748Z,7.57
2023-02-05T05:33:09.181Z,4.82
2023-02-05T05:35:36.182Z,4.47
2023-02-05T05:38:02.767Z,4.90
2023-02-05T05:40:48.159Z,8.32
2023-02-05T05:43:34.582Z,5.38
2023-02-05T05:46:01.092Z,3.85
2023-02-05T05:48:27.613Z,6.50
2023-02-05T05:50:54.553Z,4.93
2023-02-05T05:53:20.973Z,4.72
2023-02-05T05:55:47.325Z,7.40
2023-02-05T05:58:13.695Z,7.15
2023-02-05T06:00:40.587Z,6.82
2023-02-05T06:03:06.978Z,6.07
2023-02-05T06:05:33.848Z,4.65
2023-02-05T06:08:00.397Z,3.92
2023-02-05T06:10:26.957Z,6.85
2023-02-05T06:12:53.290Z,5.50
2023-02-05T06:15:19.898Z,7.85
2023-02-05T06:17:46.215Z,7.80
2023-02-05T06:20:13.009Z,5.63
2023-02-05T06:22:39.685Z,10.35
2023-02-05T06:25:06.601Z,6.38
2023-02-05T06:27:33.050Z,4.60
2023-02-05T06:29:59.528Z,5.70
2023-02-05T06:32:26.899Z,9.40
2023-02-05T06:34:56.003Z,7.90
2023-02-05T06:37:34.219Z,7.57
2023-02-05T06:40:12.849Z,7.75
2023-02-05T06:42:39.224Z,5.32
2023-02-05T06:45:05.793Z,8.23
2023-02-05T06:47:32.147Z,8.70
2023-02-05T06:49:58.522Z,8.00
2023-02-05T06:52:24.895Z,8.60
2023-02-05T06:54:51.232Z,8.60
2023-02-05T06:57:17.579Z,6.85
2023-02-05T06:59:43.939Z,7.90
2023-02-05T07:02:13.268Z,9.00
2023-02-05T07:04:39.621Z,7.35
2023-02-05T07:07:06.194Z,9.05
2023-02-05T07:09:32.888Z,11.45
2023-02-05T07:11:59.361Z,10.35
2023-02-05T07:14:25.802Z,11.25
2023-02-05T07:16:52.287Z,7.97
2023-02-05T07:19:18.608Z,8.48
2023-02-05T07:21:45.010Z,14.27
2023-02-05T07:24:11.336Z,7.57
2023-02-05T07:26:38.667Z,9.70
2023-02-05T07:29:05.070Z,10.63
2023-02-05T07:31:31.579Z,13.15
2023-02-05T07:33:57.973Z,7.32
2023-02-05T07:36:24.921Z,10.73
2023-02-05T07:38:51.266Z,10.35
2023-02-05T07:41:17.727Z,8.65
2023-02-05T07:43:44.495Z,7.65
2023-02-05T07:46:12.433Z,10.57
2023-02-05T07:48:38.944Z,5.63
2023-02-05T07:51:06.279Z,9.05
2023-02-05T07:53:32.736Z,8.10
2023-02-05T07:56:03.340Z,11.95
2023-02-05T07:58:29.819Z,8.07
2023-02-05T08:00:59.726Z,5.43
2023-02-05T08:03:26.103Z,8.95
2023-02-05T08:05:52.463Z,9.05
2023-02-05T08:08:18.768Z,9.77
2023-02-05T08:10:45.087Z,8.90
2023-02-05T08:13:11.455Z,7.75
2023-02-05T08:15:38.836Z,9.80
2023-02-05T08:18:05.130Z,7.50
2023-02-05T08:20:31.642Z,9.13
2023-02-05T08:22:58.087Z,7.78
2023-02-05T08:25:24.474Z,9.75
2023-02-05T08:27:50.844Z,7.03
2023-02-05T08:30:18.144Z,16.88
2023-02-05T08:32:47.618Z,18.45
2023-02-05T08:35:13.973Z,13.40
2023-02-05T08:37:40.303Z,11.73
2023-02-05T08:40:07.030Z,12.68
2023-02-05T08:42:33.423Z,19.27
2023-02-05T08:44:59.980Z,15.20
2023-02-05T08:47:26.582Z,15.65
2023-02-05T08:49:53.022Z,14.77
2023-02-05T08:52:19.576Z,17.50
2023-02-05T08:54:46.765Z,19.63
2023-02-05T08:57:13.085Z,18.65
2023-02-05T08:59:39.428Z,13.63
2023-02-05T09:02:06.025Z,16.70
2023-02-05T09:04:32.472Z,19.38
2023-02-05T09:06:58.835Z,17.98
2023-02-05T09:09:25.224Z,12.90
2023-02-05T09:11:51.632Z,12.38
2023-02-05T09:14:17.991Z,12.32
2023-02-05T09:16:44.613Z,11.38
2023-02-05T09:19:10.992Z,10.50
2023-02-05T09:21:37.391Z,9.80
2023-02-05T09:24:04.180Z,11.10
2023-02-05T09:26:30.524Z,15.18
2023-02-05T09:28:57.802Z,22.40
2023-02-05T09:31:24.621Z,44.90
2023-02-05T09:33:51.097Z,40.63
2023-02-05T09:36:21.355Z,16.60
2023-02-05T09:38:48.214Z,62.58
2023-02-05T09:41:22.153Z,24.90
2023-02-05T09:43:54.626Z,11.80
2023-02-05T09:46:44.991Z,7.00
2023-02-05T09:49:19.808Z,8.75
2023-02-05T09:51:48.039Z,8.40
2023-02-05T09:54:17.360Z,7.05
2023-02-05T09:56:44.606Z,6.57
2023-02-05T09:59:14.384Z,6.50
2023-02-05T10:01:44.181Z,6.70
2023-02-05T10:04:11.636Z,9.15
2023-02-05T10:06:45.999Z,8.45
2023-02-05T10:09:35.441Z,5.97
2023-02-05T10:12:20.443Z,6.15
2023-02-05T10:14:59.024Z,6.97
2023-02-05T10:17:40.695Z,8.57
2023-02-05T10:20:18.905Z,4.90
2023-02-05T10:22:52.813Z,4.88
2023-02-05T10:25:31.177Z,7.35
2023-02-05T10:28:03.996Z,4.82
2023-02-05T10:30:50.723Z,6.97
2023-02-05T10:33:18.719Z,7.20
2023-02-05T10:35:57.226Z,6.32
2023-02-05T10:38:24.333Z,8.57
2023-02-05T10:40:55.900Z,6.55
2023-02-05T10:43:29.773Z,6.00
2023-02-05T10:45:56.630Z,8.18
2023-02-05T10:48:38.326Z,9.57
2023-02-05T10:51:11.103Z,7.38
2023-02-05T10:53:37.572Z,8.30
2023-02-05T10:56:04.653Z,5.55
2023-02-05T10:58:49.792Z,5.55
2023-02-05T11:01:29.723Z,5.80
2023-02-05T11:04:01.175Z,6.60
2023-02-05T11:06:30.444Z,4.78
2023-02-05T11:08:57.014Z,6.03
2023-02-05T11:11:23.331Z,6.28
2023-02-05T11:13:58.288Z,5.70
2023-02-05T11:16:34.177Z,4.55
2023-02-05T11:19:01.148Z,5.75
2023-02-05T11:21:45.511Z,6.93
2023-02-05T11:24:21.555Z,5.18
2023-02-05T11:26:50.814Z,5.05
2023-02-05T11:29:20.689Z,6.50
2023-02-05T11:31:47.150Z,9.02
2023-02-05T11:34:15.687Z,5.88
2023-02-05T11:36:53.089Z,5.00
2023-02-05T11:39:48.592Z,5.35
2023-02-05T11:42:19.157Z,3.90
2023-02-05T11:44:51.321Z,5.53
2023-02-05T11:47:23.620Z,5.53
2023-02-05T11:49:51.064Z,6.78
2023-02-05T11:52:22.984Z,5.55
2023-02-05T11:54:50.188Z,7.13
2023-02-05T11:57:22.331Z,8.88
2023-02-05T11:59:59.812Z,5.72
2023-02-05T12:02:26.300Z,6.20
2023-02-05T12:04:55.484Z,6.68
2023-02-05T12:07:22.347Z,10.68
2023-02-05T12:09:48.904Z,8.52
2023-02-05T12:12:49.488Z,6.35
2023-02-05T12:15:23.253Z,5.15
2023-02-05T12:17:49.582Z,7.35
2023-02-05T12:20:15.997Z,7.00
2023-02-05T12:22:51.766Z,8.50
2023-02-05T12:25:30.089Z,5.40
2023-02-05T12:28:16.825Z,7.30
2023-02-05T12:30:58.021Z,4.03
2023-02-05T12:33:28.594Z,8.05
2023-02-05T12:35:55.003Z,6.75
2023-02-05T12:38:32.348Z,8.43
2023-02-05T12:40:59.015Z,6.20
2023-02-05T12:43:30.660Z,5.97
2023-02-05T12:45:56.960Z,6.50
2023-02-05T12:48:29.317Z,6.07
2023-02-05T12:51:11.229Z,7.68
2023-02-05T12:53:46.554Z,6.53
2023-02-05T12:56:48.526Z,5.32
2023-02-05T12:59:19.972Z,10.40
2023-02-05T13:01:53.027Z,7.18
2023-02-05T13:04:30.046Z,5.45
2023-02-05T13:07:05.596Z,6.97
2023-02-05T13:12:05.403Z,5.90
2023-02-05T13:14:36.467Z,4.53
2023-02-05T13:17:17.713Z,6.95
2023-02-05T13:19:47.495Z,6.68
2023-02-05T13:22:35.732Z,10.63
2023-02-05T13:25:30.013Z,5.70
2023-02-05T13:28:20.763Z,51.15
2023-02-05T13:30:50.655Z,38.88
2023-02-05T13:33:17.053Z,10.63
2023-02-05T13:35:49.839Z,5.03
2023-02-05T13:38:22.124Z,5.30
2023-02-05T13:41:14.961Z,4.53
2023-02-05T13:43:47.194Z,7.72
2023-02-05T13:46:26.422Z,3.53
2023-02-05T13:49:01.800Z,4.32
2023-02-05T13:51:31.118Z,6.97
2023-02-05T13:54:16.490Z,6.25
2023-02-05T13:57:01.824Z,8.90
2023-02-05T13:59:28.216Z,5.00
2023-02-05T14:02:00.355Z,7.55
2023-02-05T14:04:28.853Z,6.28
2023-02-05T14:07:15.511Z,5.88
2023-02-05T14:09:43.439Z,5.35
2023-02-05T14:12:11.497Z,6.50
2023-02-05T14:14:38.352Z,3.45
2023-02-05T14:17:23.931Z,7.07
2023-02-05T14:20:01.109Z,4.50
2023-02-05T14:22:42.363Z,4.90
2023-02-05T14:25:27.526Z,6.68
2023-02-05T14:27:55.722Z,6.73
2023-02-05T14:30:37.539Z,6.88
2023-02-05T14:33:23.930Z,7.10
2023-02-05T14:35:54.861Z,6.93
2023-02-05T14:38:23.342Z,7.43
2023-02-05T14:41:08.527Z,5.65
2023-02-05T14:43:36.149Z,6.15
2023-02-05T14:46:05.597Z,3.53
2023-02-05T14:48:33.750Z,4.88
2023-02-05T14:51:01.214Z,4.38
2023-02-05T14:53:29.732Z,5.45
2023-02-05T14:55:57.016Z,7.70
2023-02-05T14:58:23.350Z,4.57
2023-02-05T15:00:49.868Z,8.38
2023-02-05T15:03:24.842Z,9.57
2023-02-05T15:05:54.257Z,6.10
2023-02-05T15:08:35.979Z,6.22
2023-02-05T15:11:17.961Z,5.55
2023-02-05T15:14:04.581Z,5.57
2023-02-05T15:16:31.132Z,4.65
2023-02-05T15:19:01.091Z,3.22
2023-02-05T15:21:33.485Z,3.80
2023-02-05T15:24:02.928Z,4.68
2023-02-05T15:26:30.272Z,5.13
2023-02-05T15:29:03.395Z,4.70
2023-02-05T15:31:33.944Z,6.20
2023-02-05T15:34:03.124Z,7.95
2023-02-05T15:36:36.502Z,8.82
2023-02-05T15:39:12.631Z,6.75
2023-02-05T15:41:41.090Z,7.82
2023-02-05T15:44:18.700Z,11.18
2023-02-05T15:46:46.363Z,13.05
2023-02-05T15:49:13.130Z,13.27
2023-02-05T15:51:39.677Z,11.35
2023-02-05T15:54:06.484Z,12.60
2023-02-05T15:56:42.368Z,12.38
2023-02-05T15:59:15.298Z,13.15
2023-02-05T16:01:49.703Z,14.20
2023-02-05T16:04:30.165Z,12.75
2023-02-05T16:06:56.877Z,14.65
2023-02-05T16:09:24.973Z,15.30
2023-02-05T16:11:51.768Z,14.25
2023-02-05T16:14:19.461Z,15.00
2023-02-05T16:16:58.350Z,12.98
2023-02-05T16:19:28.509Z,12.52
2023-02-05T16:21:59.293Z,11.02
2023-02-05T16:24:47.878Z,12.45
2023-02-05T16:27:14.173Z,19.67
2023-02-05T16:29:48.056Z,20.95
2023-02-05T16:32:20.304Z,15.60
2023-02-05T16:34:47.181Z,14.13
2023-02-05T16:37:15.976Z,13.95
2023-02-05T16:39:44.222Z,14.68
2023-02-05T16:42:29.290Z,16.15
2023-02-05T16:45:05.360Z,14.82
2023-02-05T16:47:31.767Z,13.30
2023-02-05T16:49:58.152Z,13.57
2023-02-05T16:52:31.031Z,11.98
2023-02-05T16:54:58.550Z,15.43
2023-02-05T16:57:35.594Z,24.42
2023-02-05T17:00:25.867Z,21.90
2023-02-05T17:02:53.420Z,31.80
2023-02-05T17:05:24.783Z,32.25
2023-02-05T17:08:12.222Z,21.52
2023-02-05T17:10:49.707Z,25.27
2023-02-05T17:13:28.639Z,37.25
2023-02-05T17:15:55.096Z,23.83
2023-02-05T17:18:21.505Z,21.33
2023-02-05T17:20:47.939Z,52.17
2023-02-05T17:23:15.518Z,46.00
2023-02-05T17:25:51.505Z,34.38
2023-02-05T17:28:22.578Z,34.00
2023-02-05T17:30:49.697Z,40.85
2023-02-05T17:33:18.248Z,29.95
2023-02-05T17:35:44.619Z,32.13
2023-02-05T17:38:11.207Z,35.95
2023-02-05T17:40:37.629Z,35.55
2023-02-05T17:43:04.010Z,36.20
2023-02-05T17:45:31.720Z,45.28
2023-02-05T17:47:58.146Z,34.20
2023-02-05T17:50:24.626Z,35.58
2023-02-05T17:52:52.201Z,34.75
2023-02-05T17:55:19.274Z,37.60
2023-02-05T17:57:46.108Z,48.50
2023-02-05T18:00:13.572Z,46.67
2023-02-05T18:02:39.928Z,43.80
2023-02-05T18:05:06.541Z,39.40
2023-02-05T18:07:39.694Z,40.75
2023-02-05T18:10:06.766Z,40.25
2023-02-05T18:12:33.302Z,40.83
2023-02-05T18:14:59.741Z,39.50
2023-02-05T18:17:26.071Z,41.42
2023-02-05T18:19:52.515Z,40.65
2023-02-05T18:22:18.908Z,44.33
2023-02-05T18:24:45.300Z,42.97
2023-02-05T18:27:12.163Z,37.63
2023-02-05T18:29:39.277Z,41.33
2023-02-05T18:32:06.378Z,41.42
2023-02-05T18:34:32.741Z,59.95
2023-02-05T18:36:59.335Z,46.08
2023-02-05T18:39:29.580Z,39.80
2023-02-05T18:41:56.494Z,48.78
2023-02-05T18:44:22.805Z,52.45
2023-02-05T18:46:49.219Z,51.67
2023-02-05T18:49:15.806Z,51.13
2023-02-05T18:51:42.170Z,51.05
2023-02-05T18:54:09.842Z,40.20
2023-02-05T18:56:39.928Z,35.20
2023-02-05T18:59:15.339Z,36.50
2023-02-05T19:01:43.312Z,33.60
2023-02-05T19:04:13.166Z,32.15
2023-02-05T19:06:43.362Z,27.38
2023-02-05T19:09:10.130Z,37.42
2023-02-05T19:11:43.938Z,32.80
2023-02-05T19:14:18.834Z,27.92
2023-02-05T19:16:51.320Z,43.80
2023-02-05T19:19:21.137Z,32.83
2023-02-05T19:21:50.163Z,34.88
2023-02-05T19:24:18.476Z,34.22
2023-02-05T19:26:45.140Z,37.25
2023-02-05T19:29:15.816Z,35.00
2023-02-05T19:31:43.053Z,46.20
2023-02-05T19:34:09.641Z,31.98
2023-02-05T19:36:37.276Z,25.27
2023-02-05T19:39:05.351Z,23.52
2023-02-05T19:41:32.186Z,29.05
2023-02-05T19:43:59.529Z,33.00
2023-02-05T19:46:26.898Z,32.70
2023-02-05T19:48:54.606Z,41.45
2023-02-05T19:51:21.417Z,37.85
2023-02-05T19:53:48.104Z,38.17
2023-02-05T19:56:17.173Z,39.97
2023-02-05T19:58:44.434Z,39.55
2023-02-05T20:01:14.893Z,37.42
2023-02-05T20:03:41.629Z,38.85
2023-02-05T20:06:08.808Z,38.00
2023-02-05T20:08:35.252Z,37.55
2023-02-05T20:11:02.104Z,38.50
2023-02-05T20:13:29.081Z,24.80
2023-02-05T20:15:55.717Z,31.73
2023-02-05T20:18:22.567Z,26.10
2023-02-05T20:20:49.240Z,31.10
2023-02-05T20:23:15.681Z,33.47
2023-02-05T20:25:51.682Z,29.63
2023-02-05T20:28:18.136Z,22.08
2023-02-05T20:31:03.269Z,26.70
2023-02-05T20:33:29.679Z,26.92
2023-02-05T20:35:55.994Z,26.65
2023-02-05T20:38:22.547Z,26.63
2023-02-05T20:40:49.083Z,21.73
2023-02-05T20:43:15.447Z,23.25
2023-02-05T20:45:41.890Z,26.75
2023-02-05T20:48:08.236Z,25.73
2023-02-05T20:50:34.879Z,27.15
2023-02-05T20:53:01.522Z,28.80
2023-02-05T20:55:27.860Z,26.40
2023-02-05T20:57:54.183Z,33.10
2023-02-05T21:00:22.380Z,31.25
2023-02-05T21:02:48.696Z,31.00
2023-02-05T21:05:15.031Z,38.33
2023-02-05T21:07:41.398Z,24.65
2023-02-05T21:10:07.924Z,22.25
2023-02-05T21:12:34.389Z,23.38
2023-02-05T21:15:00.823Z,19.67
2023-02-05T21:17:27.157Z,21.13
2023-02-05T21:19:53.501Z,23.35
2023-02-05T21:22:19.925Z,24.75
2023-02-05T21:24:46.304Z,22.05
2023-02-05T21:27:12.733Z,24.67
2023-02-05T21:29:39.165Z,23.88
2023-02-05T21:32:05.615Z,28.15
2023-02-05T21:34:32.017Z,27.45
2023-02-05T21:36:58.363Z,24.60
2023-02-05T21:39:25.481Z,28.33
2023-02-05T21:41:53.264Z,27.60
2023-02-05T21:44:19.706Z,24.83
2023-02-05T21:46:46.097Z,28.50
2023-02-05T21:49:12.640Z,28.35
2023-02-05T21:51:39.964Z,28.15
2023-02-05T21:54:06.444Z,25.38
2023-02-05T21:56:34.631Z,26.67
2023-02-05T21:59:01.028Z,26.42
2023-02-05T22:01:28.917Z,25.80
2023-02-05T22:03:56.734Z,24.08
2023-02-05T22:06:24.758Z,28.02
2023-02-05T22:08:51.630Z,30.77
2023-02-05T22:11:19.769Z,25.23
2023-02-05T22:13:47.095Z,28.75
2023-02-05T22:16:14.983Z,29.15
2023-02-05T22:18:41.996Z,31.08
2023-02-05T22:21:09.806Z,27.00
2023-02-05T22:23:36.240Z,27.95
2023-02-05T22:26:02.827Z,30.50
2023-02-05T22:28:29.620Z,27.17
2023-02-05T22:30:59.884Z,27.52
2023-02-05T22:33:26.220Z,28.27
2023-02-05T22:35:52.833Z,32.97
2023-02-05T22:38:19.152Z,31.63
2023-02-05T22:40:45.558Z,28.38
2023-02-05T22:43:11.872Z,36.90
2023-02-05T22:45:38.433Z,28.52
2023-02-05T22:48:05.039Z,27.00
2023-02-05T22:50:31.441Z,31.88
2023-02-05T22:52:57.953Z,31.95
2023-02-05T22:55:24.348Z,32.30
2023-02-05T22:57:50.801Z,29.48
2023-02-05T23:00:17.615Z,26.95
2023-02-05T23:02:44.087Z,37.60
2023-02-05T23:05:10.430Z,31.13
2023-02-05T23:07:36.942Z,35.17
2023-02-05T23:10:03.797Z,31.40
2023-02-05T23:12:30.199Z,31.83
2023-02-05T23:14:56.579Z,34.33
2023-02-05T23:17:24.527Z,31.92
2023-02-05T23:19:51.995Z,36.55
2023-02-05T23:22:18.503Z,34.92
2023-02-05T23:24:44.849Z,30.90
2023-02-05T23:27:11.257Z,27.33
2023-02-05T23:29:37.840Z,27.50
2023-02-05T23:32:04.680Z,25.25
2023-02-05T23:34:32.154Z,26.55
2023-02-05T23:36:58.661Z,27.77
2023-02-05T23:39:25.026Z,30.77
2023-02-05T23:41:51.415Z,26.67
2023-02-05T23:44:19.323Z,30.25
2023-02-05T23:46:46.438Z,32.78
2023-02-05T23:49:13.058Z,30.58
2023-02-05T23:51:39.756Z,32.90
2023-02-05T23:54:06.662Z,27.52
2023-02-05T23:56:33.151Z,26.67
2023-02-05T23:59:00.042Z,30.02
